sensor_id;sensor_type;location;lat;lon;timestamp;P1;durP1;ratioP1;P2;durP2;ratioP2
3597;SDS011;1813;52.016;8.714;2022-12-20T00:00:32;9.33;;;5.70;;
3597;SDS011;1813;52.016;8.714;2022-12-20T00:03:06;9.97;;;6.63;;
3597;SDS011;1813;52.016;8.714;2022-12-20T00:05:40;10.10;;;6.60;;
3597;SDS011;1813;52.016;8.714;2022-12-20T00:08:17;8.50;;;6.23;;
3597;SDS011;1813;52.016;8.714;2022-12-20T00:10:51;8.30;;;5.70;;
3597;SDS011;1813;52.016;8.714;2022-12-20T00:13:25;8.70;;;6.10;;
3597;SDS011;1813;52.016;8.714;2022-12-20T00:16:02;7.77;;;5.73;;
3597;SDS011;1813;52.016;8.714;2022-12-20T00:18:40;8.93;;;5.53;;
3597;SDS011;1813;52.016;8.714;2022-12-20T00:21:14;8.90;;;5.87;;
3597;SDS011;1813;52.016;8.714;2022-12-20T00:23:51;8.80;;;5.77;;
3597;SDS011;1813;52.016;8.714;2022-12-20T00:26:27;8.20;;;5.53;;
3597;SDS011;1813;52.016;8.714;2022-12-20T00:29:02;6.83;;;5.30;;
3597;SDS011;1813;52.016;8.714;2022-12-20T00:31:37;7.87;;;5.57;;
3597;SDS011;1813;52.016;8.714;2022-12-20T00:34:13;9.10;;;5.30;;
3597;SDS011;1813;52.016;8.714;2022-12-20T00:36:46;6.60;;;5.40;;
3597;SDS011;1813;52.016;8.714;2022-12-20T00:39:23;8.83;;;5.73;;
3597;SDS011;1813;52.016;8.714;2022-12-20T00:41:57;9.60;;;5.57;;
3597;SDS011;1813;52.016;8.714;2022-12-20T00:44:30;7.20;;;4.83;;
3597;SDS011;1813;52.016;8.714;2022-12-20T00:47:04;11.90;;;5.57;;
3597;SDS011;1813;52.016;8.714;2022-12-20T00:49:38;11.23;;;5.57;;
3597;SDS011;1813;52.016;8.714;2022-12-20T00:52:12;7.10;;;5.30;;
3597;SDS011;1813;52.016;8.714;2022-12-20T00:54:48;8.63;;;5.33;;
3597;SDS011;1813;52.016;8.714;2022-12-20T00:57:22;6.93;;;5.20;;
3597;SDS011;1813;52.016;8.714;2022-12-20T00:59:56;9.20;;;5.57;;
3597;SDS011;1813;52.016;8.714;2022-12-20T01:02:30;12.63;;;5.60;;
3597;SDS011;1813;52.016;8.714;2022-12-20T01:05:04;6.83;;;5.00;;
3597;SDS011;1813;52.016;8.714;2022-12-20T01:07:38;8.80;;;5.23;;
3597;SDS011;1813;52.016;8.714;2022-12-20T01:10:14;8.73;;;5.30;;
3597;SDS011;1813;52.016;8.714;2022-12-20T01:12:48;6.93;;;5.07;;
3597;SDS011;1813;52.016;8.714;2022-12-20T01:15:23;10.93;;;5.50;;
3597;SDS011;1813;52.016;8.714;2022-12-20T01:17:56;7.10;;;5.30;;
3597;SDS011;1813;52.016;8.714;2022-12-20T01:20:30;8.90;;;5.27;;
3597;SDS011;1813;52.016;8.714;2022-12-20T01:23:04;7.07;;;5.17;;
3597;SDS011;1813;52.016;8.714;2022-12-20T01:25:40;6.80;;;5.00;;
3597;SDS011;1813;52.016;8.714;2022-12-20T01:28:15;6.87;;;4.90;;
3597;SDS011;1813;52.016;8.714;2022-12-20T01:30:48;6.53;;;5.00;;
3597;SDS011;1813;52.016;8.714;2022-12-20T01:33:22;8.00;;;5.10;;
3597;SDS011;1813;52.016;8.714;2022-12-20T01:35:56;11.93;;;5.40;;
3597;SDS011;1813;52.016;8.714;2022-12-20T01:38:31;8.70;;;4.80;;
3597;SDS011;1813;52.016;8.714;2022-12-20T01:41:08;6.33;;;4.63;;
3597;SDS011;1813;52.016;8.714;2022-12-20T01:43:48;8.13;;;5.00;;
3597;SDS011;1813;52.016;8.714;2022-12-20T01:46:24;7.50;;;4.77;;
3597;SDS011;1813;52.016;8.714;2022-12-20T01:49:00;5.73;;;4.33;;
3597;SDS011;1813;52.016;8.714;2022-12-20T01:51:38;5.60;;;4.40;;
3597;SDS011;1813;52.016;8.714;2022-12-20T01:54:16;8.77;;;4.57;;
3597;SDS011;1813;52.016;8.714;2022-12-20T01:56:57;7.10;;;4.70;;
3597;SDS011;1813;52.016;8.714;2022-12-20T01:59:34;8.43;;;4.90;;
3597;SDS011;1813;52.016;8.714;2022-12-20T02:02:11;5.20;;;4.20;;
3597;SDS011;1813;52.016;8.714;2022-12-20T02:04:45;5.37;;;4.50;;
3597;SDS011;1813;52.016;8.714;2022-12-20T02:07:21;11.53;;;4.37;;
3597;SDS011;1813;52.016;8.714;2022-12-20T02:09:58;6.70;;;4.30;;
3597;SDS011;1813;52.016;8.714;2022-12-20T02:12:38;6.20;;;4.27;;
3597;SDS011;1813;52.016;8.714;2022-12-20T02:15:22;6.43;;;4.47;;
3597;SDS011;1813;52.016;8.714;2022-12-20T02:18:08;6.00;;;4.47;;
3597;SDS011;1813;52.016;8.714;2022-12-20T02:20:58;6.90;;;4.50;;
3597;SDS011;1813;52.016;8.714;2022-12-20T02:23:49;5.90;;;4.40;;
3597;SDS011;1813;52.016;8.714;2022-12-20T02:26:59;6.43;;;4.37;;
3597;SDS011;1813;52.016;8.714;2022-12-20T02:30:06;7.83;;;5.17;;
3597;SDS011;1813;52.016;8.714;2022-12-20T02:32:47;4.60;;;4.10;;
3597;SDS011;1813;52.016;8.714;2022-12-20T02:35:28;7.20;;;4.43;;
3597;SDS011;1813;52.016;8.714;2022-12-20T02:38:22;6.50;;;4.27;;
3597;SDS011;1813;52.016;8.714;2022-12-20T02:41:00;9.00;;;4.20;;
3597;SDS011;1813;52.016;8.714;2022-12-20T02:43:40;5.43;;;4.10;;
3597;SDS011;1813;52.016;8.714;2022-12-20T02:46:31;6.27;;;4.43;;
3597;SDS011;1813;52.016;8.714;2022-12-20T02:49:07;4.67;;;4.10;;
3597;SDS011;1813;52.016;8.714;2022-12-20T02:51:46;6.90;;;4.67;;
3597;SDS011;1813;52.016;8.714;2022-12-20T02:54:23;7.47;;;4.60;;
3597;SDS011;1813;52.016;8.714;2022-12-20T02:56:59;7.87;;;4.13;;
3597;SDS011;1813;52.016;8.714;2022-12-20T02:59:38;4.97;;;4.10;;
3597;SDS011;1813;52.016;8.714;2022-12-20T03:02:20;7.17;;;4.83;;
3597;SDS011;1813;52.016;8.714;2022-12-20T03:04:55;10.73;;;4.33;;
3597;SDS011;1813;52.016;8.714;2022-12-20T03:07:30;5.50;;;4.40;;
3597;SDS011;1813;52.016;8.714;2022-12-20T03:10:07;6.97;;;4.23;;
3597;SDS011;1813;52.016;8.714;2022-12-20T03:12:42;6.90;;;4.60;;
3597;SDS011;1813;52.016;8.714;2022-12-20T03:15:16;6.67;;;4.30;;
3597;SDS011;1813;52.016;8.714;2022-12-20T03:17:56;6.87;;;4.40;;
3597;SDS011;1813;52.016;8.714;2022-12-20T03:20:30;6.57;;;4.60;;
3597;SDS011;1813;52.016;8.714;2022-12-20T03:23:04;10.63;;;5.20;;
3597;SDS011;1813;52.016;8.714;2022-12-20T03:25:38;6.10;;;4.37;;
3597;SDS011;1813;52.016;8.714;2022-12-20T03:28:17;5.60;;;4.50;;
3597;SDS011;1813;52.016;8.714;2022-12-20T03:30:50;6.57;;;4.70;;
3597;SDS011;1813;52.016;8.714;2022-12-20T03:33:27;5.43;;;4.70;;
3597;SDS011;1813;52.016;8.714;2022-12-20T03:36:04;6.23;;;4.60;;
3597;SDS011;1813;52.016;8.714;2022-12-20T03:38:39;11.07;;;5.40;;
3597;SDS011;1813;52.016;8.714;2022-12-20T03:41:12;5.63;;;4.50;;
3597;SDS011;1813;52.016;8.714;2022-12-20T03:43:46;7.40;;;4.60;;
3597;SDS011;1813;52.016;8.714;2022-12-20T03:46:20;6.60;;;4.63;;
3597;SDS011;1813;52.016;8.714;2022-12-20T03:48:57;9.47;;;5.00;;
3597;SDS011;1813;52.016;8.714;2022-12-20T03:51:32;5.83;;;4.50;;
3597;SDS011;1813;52.016;8.714;2022-12-20T03:54:06;8.50;;;4.87;;
3597;SDS011;1813;52.016;8.714;2022-12-20T03:57:15;7.50;;;4.47;;
3597;SDS011;1813;52.016;8.714;2022-12-20T03:59:52;13.10;;;8.70;;
3597;SDS011;1813;52.016;8.714;2022-12-20T04:02:26;15.87;;;9.87;;
3597;SDS011;1813;52.016;8.714;2022-12-20T04:05:03;15.27;;;10.80;;
3597;SDS011;1813;52.016;8.714;2022-12-20T04:07:37;14.13;;;10.40;;
3597;SDS011;1813;52.016;8.714;2022-12-20T04:10:11;17.77;;;11.50;;
3597;SDS011;1813;52.016;8.714;2022-12-20T04:12:45;18.80;;;12.47;;
3597;SDS011;1813;52.016;8.714;2022-12-20T04:15:20;15.80;;;11.43;;
3597;SDS011;1813;52.016;8.714;2022-12-20T04:17:55;19.43;;;12.30;;
3597;SDS011;1813;52.016;8.714;2022-12-20T04:20:32;19.47;;;12.37;;
3597;SDS011;1813;52.016;8.714;2022-12-20T04:23:19;18.40;;;12.40;;
3597;SDS011;1813;52.016;8.714;2022-12-20T04:25:53;20.60;;;12.40;;
3597;SDS011;1813;52.016;8.714;2022-12-20T04:28:27;19.13;;;12.27;;
3597;SDS011;1813;52.016;8.714;2022-12-20T04:31:01;20.13;;;12.70;;
3597;SDS011;1813;52.016;8.714;2022-12-20T04:33:39;19.47;;;12.50;;
3597;SDS011;1813;52.016;8.714;2022-12-20T04:36:16;21.43;;;13.80;;
3597;SDS011;1813;52.016;8.714;2022-12-20T04:38:52;21.97;;;14.00;;
3597;SDS011;1813;52.016;8.714;2022-12-20T04:41:26;25.90;;;13.70;;
3597;SDS011;1813;52.016;8.714;2022-12-20T04:44:05;19.60;;;12.80;;
3597;SDS011;1813;52.016;8.714;2022-12-20T04:46:40;21.23;;;13.63;;
3597;SDS011;1813;52.016;8.714;2022-12-20T04:49:18;21.67;;;14.30;;
3597;SDS011;1813;52.016;8.714;2022-12-20T04:51:55;23.43;;;14.50;;
3597;SDS011;1813;52.016;8.714;2022-12-20T04:54:49;24.53;;;14.20;;
3597;SDS011;1813;52.016;8.714;2022-12-20T04:57:27;25.30;;;15.60;;
3597;SDS011;1813;52.016;8.714;2022-12-20T05:00:01;24.13;;;15.57;;
3597;SDS011;1813;52.016;8.714;2022-12-20T05:02:36;25.93;;;16.50;;
3597;SDS011;1813;52.016;8.714;2022-12-20T05:05:14;24.43;;;14.90;;
3597;SDS011;1813;52.016;8.714;2022-12-20T05:07:55;23.17;;;14.83;;
3597;SDS011;1813;52.016;8.714;2022-12-20T05:10:32;25.57;;;16.10;;
3597;SDS011;1813;52.016;8.714;2022-12-20T05:13:07;23.67;;;14.90;;
3597;SDS011;1813;52.016;8.714;2022-12-20T05:15:48;30.50;;;19.00;;
3597;SDS011;1813;52.016;8.714;2022-12-20T05:18:27;31.20;;;19.77;;
3597;SDS011;1813;52.016;8.714;2022-12-20T05:21:05;30.10;;;17.07;;
3597;SDS011;1813;52.016;8.714;2022-12-20T05:23:56;25.03;;;15.20;;
3597;SDS011;1813;52.016;8.714;2022-12-20T05:27:12;23.73;;;15.63;;
3597;SDS011;1813;52.016;8.714;2022-12-20T05:29:46;23.70;;;15.40;;
3597;SDS011;1813;52.016;8.714;2022-12-20T05:32:20;24.77;;;15.50;;
3597;SDS011;1813;52.016;8.714;2022-12-20T05:34:57;24.80;;;16.10;;
3597;SDS011;1813;52.016;8.714;2022-12-20T05:37:31;25.47;;;16.93;;
3597;SDS011;1813;52.016;8.714;2022-12-20T05:40:16;25.17;;;16.33;;
3597;SDS011;1813;52.016;8.714;2022-12-20T05:42:50;25.03;;;15.63;;
3597;SDS011;1813;52.016;8.714;2022-12-20T05:45:27;23.63;;;15.30;;
3597;SDS011;1813;52.016;8.714;2022-12-20T05:48:06;23.30;;;15.63;;
3597;SDS011;1813;52.016;8.714;2022-12-20T05:50:43;24.27;;;15.50;;
3597;SDS011;1813;52.016;8.714;2022-12-20T05:53:28;27.30;;;16.57;;
3597;SDS011;1813;52.016;8.714;2022-12-20T05:56:08;28.97;;;17.23;;
3597;SDS011;1813;52.016;8.714;2022-12-20T05:58:42;38.53;;;16.50;;
3597;SDS011;1813;52.016;8.714;2022-12-20T06:01:17;26.73;;;17.07;;
3597;SDS011;1813;52.016;8.714;2022-12-20T06:03:51;28.70;;;17.60;;
3597;SDS011;1813;52.016;8.714;2022-12-20T06:06:25;33.30;;;17.60;;
3597;SDS011;1813;52.016;8.714;2022-12-20T06:08:59;32.50;;;18.43;;
3597;SDS011;1813;52.016;8.714;2022-12-20T06:11:45;28.07;;;17.63;;
3597;SDS011;1813;52.016;8.714;2022-12-20T06:14:19;33.03;;;17.60;;
3597;SDS011;1813;52.016;8.714;2022-12-20T06:16:53;28.90;;;17.80;;
3597;SDS011;1813;52.016;8.714;2022-12-20T06:19:27;30.17;;;18.60;;
3597;SDS011;1813;52.016;8.714;2022-12-20T06:22:02;29.47;;;18.30;;
3597;SDS011;1813;52.016;8.714;2022-12-20T06:24:46;34.10;;;20.37;;
3597;SDS011;1813;52.016;8.714;2022-12-20T06:27:26;31.63;;;20.03;;
3597;SDS011;1813;52.016;8.714;2022-12-20T06:30:19;37.07;;;20.13;;
3597;SDS011;1813;52.016;8.714;2022-12-20T06:33:09;33.70;;;21.10;;
3597;SDS011;1813;52.016;8.714;2022-12-20T06:35:42;31.47;;;19.43;;
3597;SDS011;1813;52.016;8.714;2022-12-20T06:38:17;29.10;;;19.70;;
3597;SDS011;1813;52.016;8.714;2022-12-20T06:40:51;37.50;;;22.27;;
3597;SDS011;1813;52.016;8.714;2022-12-20T06:43:28;35.50;;;21.37;;
3597;SDS011;1813;52.016;8.714;2022-12-20T06:46:02;33.60;;;21.53;;
3597;SDS011;1813;52.016;8.714;2022-12-20T06:48:36;31.80;;;20.07;;
3597;SDS011;1813;52.016;8.714;2022-12-20T06:51:12;34.07;;;21.40;;
3597;SDS011;1813;52.016;8.714;2022-12-20T06:53:46;33.57;;;21.30;;
3597;SDS011;1813;52.016;8.714;2022-12-20T06:56:20;34.83;;;21.33;;
3597;SDS011;1813;52.016;8.714;2022-12-20T06:58:57;32.00;;;20.70;;
3597;SDS011;1813;52.016;8.714;2022-12-20T07:01:31;36.40;;;21.70;;
3597;SDS011;1813;52.016;8.714;2022-12-20T07:04:05;32.37;;;19.33;;
3597;SDS011;1813;52.016;8.714;2022-12-20T07:06:39;30.53;;;19.17;;
3597;SDS011;1813;52.016;8.714;2022-12-20T07:09:13;29.90;;;19.33;;
3597;SDS011;1813;52.016;8.714;2022-12-20T07:11:46;28.40;;;18.90;;
3597;SDS011;1813;52.016;8.714;2022-12-20T07:14:24;28.13;;;18.27;;
3597;SDS011;1813;52.016;8.714;2022-12-20T07:16:57;30.63;;;18.70;;
3597;SDS011;1813;52.016;8.714;2022-12-20T07:19:31;30.80;;;18.33;;
3597;SDS011;1813;52.016;8.714;2022-12-20T07:22:05;26.13;;;17.50;;
3597;SDS011;1813;52.016;8.714;2022-12-20T07:24:39;31.37;;;19.63;;
3597;SDS011;1813;52.016;8.714;2022-12-20T07:27:13;32.10;;;18.97;;
3597;SDS011;1813;52.016;8.714;2022-12-20T07:29:49;34.10;;;19.00;;
3597;SDS011;1813;52.016;8.714;2022-12-20T07:32:23;27.60;;;17.93;;
3597;SDS011;1813;52.016;8.714;2022-12-20T07:34:57;28.00;;;18.27;;
3597;SDS011;1813;52.016;8.714;2022-12-20T07:37:31;25.83;;;17.30;;
3597;SDS011;1813;52.016;8.714;2022-12-20T07:40:05;30.87;;;17.33;;
3597;SDS011;1813;52.016;8.714;2022-12-20T07:42:41;28.80;;;17.87;;
3597;SDS011;1813;52.016;8.714;2022-12-20T07:45:18;25.10;;;16.57;;
3597;SDS011;1813;52.016;8.714;2022-12-20T07:47:52;29.07;;;15.60;;
3597;SDS011;1813;52.016;8.714;2022-12-20T07:50:27;28.50;;;17.50;;
3597;SDS011;1813;52.016;8.714;2022-12-20T07:53:01;22.90;;;15.70;;
3597;SDS011;1813;52.016;8.714;2022-12-20T07:55:38;28.87;;;16.30;;
3597;SDS011;1813;52.016;8.714;2022-12-20T07:58:12;29.07;;;17.00;;
3597;SDS011;1813;52.016;8.714;2022-12-20T08:00:51;28.13;;;17.50;;
3597;SDS011;1813;52.016;8.714;2022-12-20T08:03:26;26.97;;;17.93;;
3597;SDS011;1813;52.016;8.714;2022-12-20T08:06:04;30.93;;;18.43;;
3597;SDS011;1813;52.016;8.714;2022-12-20T08:08:40;32.33;;;19.07;;
3597;SDS011;1813;52.016;8.714;2022-12-20T08:11:18;30.90;;;18.73;;
3597;SDS011;1813;52.016;8.714;2022-12-20T08:13:54;30.57;;;18.60;;
3597;SDS011;1813;52.016;8.714;2022-12-20T08:16:31;29.17;;;18.77;;
3597;SDS011;1813;52.016;8.714;2022-12-20T08:19:04;31.20;;;18.00;;
3597;SDS011;1813;52.016;8.714;2022-12-20T08:21:38;27.17;;;18.40;;
3597;SDS011;1813;52.016;8.714;2022-12-20T08:24:12;27.83;;;19.67;;
3597;SDS011;1813;52.016;8.714;2022-12-20T08:26:46;28.87;;;18.97;;
3597;SDS011;1813;52.016;8.714;2022-12-20T08:29:19;28.63;;;18.10;;
3597;SDS011;1813;52.016;8.714;2022-12-20T08:31:56;30.57;;;17.60;;
3597;SDS011;1813;52.016;8.714;2022-12-20T08:34:30;27.73;;;17.90;;
3597;SDS011;1813;52.016;8.714;2022-12-20T08:37:04;32.13;;;18.27;;
3597;SDS011;1813;52.016;8.714;2022-12-20T08:39:38;29.00;;;18.17;;
3597;SDS011;1813;52.016;8.714;2022-12-20T08:42:12;28.20;;;18.10;;
3597;SDS011;1813;52.016;8.714;2022-12-20T08:44:46;28.47;;;18.00;;
3597;SDS011;1813;52.016;8.714;2022-12-20T08:47:22;24.90;;;16.20;;
3597;SDS011;1813;52.016;8.714;2022-12-20T08:49:56;28.40;;;17.40;;
3597;SDS011;1813;52.016;8.714;2022-12-20T08:52:30;24.80;;;17.60;;
3597;SDS011;1813;52.016;8.714;2022-12-20T08:55:04;29.73;;;18.20;;
3597;SDS011;1813;52.016;8.714;2022-12-20T08:57:39;26.43;;;18.07;;
3597;SDS011;1813;52.016;8.714;2022-12-20T09:00:13;28.33;;;18.47;;
3597;SDS011;1813;52.016;8.714;2022-12-20T09:02:50;28.80;;;17.47;;
3597;SDS011;1813;52.016;8.714;2022-12-20T09:05:28;27.47;;;16.37;;
3597;SDS011;1813;52.016;8.714;2022-12-20T09:08:02;29.30;;;17.37;;
3597;SDS011;1813;52.016;8.714;2022-12-20T09:10:36;22.90;;;16.23;;
3597;SDS011;1813;52.016;8.714;2022-12-20T09:13:09;26.70;;;15.90;;
3597;SDS011;1813;52.016;8.714;2022-12-20T09:15:43;28.40;;;15.67;;
3597;SDS011;1813;52.016;8.714;2022-12-20T09:18:20;25.97;;;16.17;;
3597;SDS011;1813;52.016;8.714;2022-12-20T09:20:53;23.23;;;16.27;;
3597;SDS011;1813;52.016;8.714;2022-12-20T09:23:27;28.50;;;16.40;;
3597;SDS011;1813;52.016;8.714;2022-12-20T09:26:02;24.37;;;16.37;;
3597;SDS011;1813;52.016;8.714;2022-12-20T09:28:37;26.90;;;16.57;;
3597;SDS011;1813;52.016;8.714;2022-12-20T09:31:12;27.83;;;17.17;;
3597;SDS011;1813;52.016;8.714;2022-12-20T09:33:51;23.77;;;16.30;;
3597;SDS011;1813;52.016;8.714;2022-12-20T09:36:28;23.93;;;16.83;;
3597;SDS011;1813;52.016;8.714;2022-12-20T09:39:02;25.23;;;15.57;;
3597;SDS011;1813;52.016;8.714;2022-12-20T09:41:37;19.97;;;13.60;;
3597;SDS011;1813;52.016;8.714;2022-12-20T09:44:13;14.80;;;9.90;;
3597;SDS011;1813;52.016;8.714;2022-12-20T09:46:52;10.20;;;7.10;;
3597;SDS011;1813;52.016;8.714;2022-12-20T09:49:32;9.17;;;6.63;;
3597;SDS011;1813;52.016;8.714;2022-12-20T09:52:18;9.03;;;6.23;;
3597;SDS011;1813;52.016;8.714;2022-12-20T09:55:15;7.57;;;5.90;;
3597;SDS011;1813;52.016;8.714;2022-12-20T09:57:57;13.60;;;6.40;;
3597;SDS011;1813;52.016;8.714;2022-12-20T10:00:45;9.40;;;5.47;;
3597;SDS011;1813;52.016;8.714;2022-12-20T10:03:23;8.73;;;5.70;;
3597;SDS011;1813;52.016;8.714;2022-12-20T10:06:05;6.33;;;5.43;;
3597;SDS011;1813;52.016;8.714;2022-12-20T10:08:48;7.13;;;5.77;;
3597;SDS011;1813;52.016;8.714;2022-12-20T10:11:39;9.77;;;5.70;;
3597;SDS011;1813;52.016;8.714;2022-12-20T10:14:25;7.10;;;5.70;;
3597;SDS011;1813;52.016;8.714;2022-12-20T10:17:11;9.33;;;5.90;;
3597;SDS011;1813;52.016;8.714;2022-12-20T10:20:01;8.43;;;5.37;;
3597;SDS011;1813;52.016;8.714;2022-12-20T10:22:45;7.90;;;5.93;;
3597;SDS011;1813;52.016;8.714;2022-12-20T10:25:28;10.40;;;6.23;;
3597;SDS011;1813;52.016;8.714;2022-12-20T10:28:08;8.13;;;5.47;;
3597;SDS011;1813;52.016;8.714;2022-12-20T10:30:44;8.47;;;6.00;;
3597;SDS011;1813;52.016;8.714;2022-12-20T10:33:19;8.50;;;6.10;;
3597;SDS011;1813;52.016;8.714;2022-12-20T10:38:52;7.93;;;5.50;;
3597;SDS011;1813;52.016;8.714;2022-12-20T10:41:28;8.63;;;5.60;;
3597;SDS011;1813;52.016;8.714;2022-12-20T10:44:03;7.60;;;5.70;;
3597;SDS011;1813;52.016;8.714;2022-12-20T10:46:49;9.33;;;5.83;;
3597;SDS011;1813;52.016;8.714;2022-12-20T10:49:29;9.70;;;6.40;;
3597;SDS011;1813;52.016;8.714;2022-12-20T10:52:09;9.60;;;6.67;;
3597;SDS011;1813;52.016;8.714;2022-12-20T10:54:49;7.90;;;6.50;;
3597;SDS011;1813;52.016;8.714;2022-12-20T10:57:23;9.57;;;6.70;;
3597;SDS011;1813;52.016;8.714;2022-12-20T10:59:59;9.73;;;6.80;;
3597;SDS011;1813;52.016;8.714;2022-12-20T11:02:36;10.93;;;6.50;;
3597;SDS011;1813;52.016;8.714;2022-12-20T11:05:20;9.70;;;6.90;;
3597;SDS011;1813;52.016;8.714;2022-12-20T11:07:56;13.10;;;6.90;;
3597;SDS011;1813;52.016;8.714;2022-12-20T11:10:34;10.87;;;7.23;;
3597;SDS011;1813;52.016;8.714;2022-12-20T11:13:17;10.67;;;7.67;;
3597;SDS011;1813;52.016;8.714;2022-12-20T11:15:54;11.20;;;7.53;;
3597;SDS011;1813;52.016;8.714;2022-12-20T11:18:35;10.63;;;7.30;;
3597;SDS011;1813;52.016;8.714;2022-12-20T11:21:19;10.57;;;7.53;;
3597;SDS011;1813;52.016;8.714;2022-12-20T11:24:06;9.90;;;7.03;;
3597;SDS011;1813;52.016;8.714;2022-12-20T11:26:58;10.03;;;7.60;;
3597;SDS011;1813;52.016;8.714;2022-12-20T11:30:02;10.17;;;7.07;;
3597;SDS011;1813;52.016;8.714;2022-12-20T11:35:44;11.33;;;7.47;;
3597;SDS011;1813;52.016;8.714;2022-12-20T11:38:26;11.30;;;7.20;;
3597;SDS011;1813;52.016;8.714;2022-12-20T11:41:10;18.03;;;10.40;;
3597;SDS011;1813;52.016;8.714;2022-12-20T11:46:55;13.70;;;7.30;;
3597;SDS011;1813;52.016;8.714;2022-12-20T11:49:40;8.50;;;6.43;;
3597;SDS011;1813;52.016;8.714;2022-12-20T11:52:27;10.50;;;6.50;;
3597;SDS011;1813;52.016;8.714;2022-12-20T11:55:14;14.23;;;5.90;;
3597;SDS011;1813;52.016;8.714;2022-12-20T11:57:53;9.23;;;5.73;;
3597;SDS011;1813;52.016;8.714;2022-12-20T12:00:35;11.30;;;6.23;;
3597;SDS011;1813;52.016;8.714;2022-12-20T12:03:12;7.70;;;6.13;;
3597;SDS011;1813;52.016;8.714;2022-12-20T12:05:51;9.87;;;6.00;;
3597;SDS011;1813;52.016;8.714;2022-12-20T12:08:30;8.60;;;5.70;;
3597;SDS011;1813;52.016;8.714;2022-12-20T12:11:11;10.77;;;5.83;;
3597;SDS011;1813;52.016;8.714;2022-12-20T12:13:49;7.37;;;5.37;;
3597;SDS011;1813;52.016;8.714;2022-12-20T12:16:27;8.50;;;6.07;;
3597;SDS011;1813;52.016;8.714;2022-12-20T12:19:07;8.37;;;5.23;;
3597;SDS011;1813;52.016;8.714;2022-12-20T12:21:44;10.70;;;6.03;;
3597;SDS011;1813;52.016;8.714;2022-12-20T12:24:25;10.60;;;5.80;;
3597;SDS011;1813;52.016;8.714;2022-12-20T12:27:03;6.90;;;5.27;;
3597;SDS011;1813;52.016;8.714;2022-12-20T12:29:37;7.10;;;5.03;;
3597;SDS011;1813;52.016;8.714;2022-12-20T12:32:16;8.13;;;4.80;;
3597;SDS011;1813;52.016;8.714;2022-12-20T12:34:56;6.53;;;4.80;;
3597;SDS011;1813;52.016;8.714;2022-12-20T12:38:02;8.60;;;5.30;;
3597;SDS011;1813;52.016;8.714;2022-12-20T12:44:01;9.80;;;5.43;;
3597;SDS011;1813;52.016;8.714;2022-12-20T12:46:57;6.23;;;4.90;;
3597;SDS011;1813;52.016;8.714;2022-12-20T12:49:36;9.53;;;6.07;;
3597;SDS011;1813;52.016;8.714;2022-12-20T12:52:24;11.50;;;5.50;;
3597;SDS011;1813;52.016;8.714;2022-12-20T12:55:01;8.10;;;5.53;;
3597;SDS011;1813;52.016;8.714;2022-12-20T12:57:40;10.60;;;7.13;;
3597;SDS011;1813;52.016;8.714;2022-12-20T13:03:37;7.70;;;5.80;;
3597;SDS011;1813;52.016;8.714;2022-12-20T13:09:42;9.10;;;4.90;;
3597;SDS011;1813;52.016;8.714;2022-12-20T13:18:32;7.50;;;4.50;;
3597;SDS011;1813;52.016;8.714;2022-12-20T13:21:16;10.00;;;5.50;;
3597;SDS011;1813;52.016;8.714;2022-12-20T13:27:16;6.80;;;4.97;;
3597;SDS011;1813;52.016;8.714;2022-12-20T13:29:56;6.23;;;4.80;;
3597;SDS011;1813;52.016;8.714;2022-12-20T13:32:58;10.03;;;4.73;;
3597;SDS011;1813;52.016;8.714;2022-12-20T13:39:01;6.13;;;4.50;;
3597;SDS011;1813;52.016;8.714;2022-12-20T13:42:05;6.57;;;4.73;;
3597;SDS011;1813;52.016;8.714;2022-12-20T13:44:51;15.73;;;5.87;;
3597;SDS011;1813;52.016;8.714;2022-12-20T13:47:36;5.77;;;4.63;;
3597;SDS011;1813;52.016;8.714;2022-12-20T13:50:24;6.77;;;4.60;;
3597;SDS011;1813;52.016;8.714;2022-12-20T13:53:02;6.73;;;4.30;;
3597;SDS011;1813;52.016;8.714;2022-12-20T13:55:37;7.00;;;4.97;;
3597;SDS011;1813;52.016;8.714;2022-12-20T13:58:13;10.13;;;6.40;;
3597;SDS011;1813;52.016;8.714;2022-12-20T14:00:52;8.20;;;6.03;;
3597;SDS011;1813;52.016;8.714;2022-12-20T14:03:39;8.80;;;5.50;;
3597;SDS011;1813;52.016;8.714;2022-12-20T14:06:14;8.80;;;6.20;;
3597;SDS011;1813;52.016;8.714;2022-12-20T14:08:51;8.73;;;7.17;;
3597;SDS011;1813;52.016;8.714;2022-12-20T14:11:25;14.40;;;8.87;;
3597;SDS011;1813;52.016;8.714;2022-12-20T14:14:00;16.33;;;9.80;;
3597;SDS011;1813;52.016;8.714;2022-12-20T14:16:37;13.07;;;9.80;;
3597;SDS011;1813;52.016;8.714;2022-12-20T14:19:12;12.30;;;8.20;;
3597;SDS011;1813;52.016;8.714;2022-12-20T14:21:47;9.60;;;6.60;;
3597;SDS011;1813;52.016;8.714;2022-12-20T14:24:21;11.00;;;5.70;;
3597;SDS011;1813;52.016;8.714;2022-12-20T14:26:55;7.00;;;4.77;;
3597;SDS011;1813;52.016;8.714;2022-12-20T14:29:30;8.37;;;5.20;;
3597;SDS011;1813;52.016;8.714;2022-12-20T14:32:14;9.60;;;4.50;;
3597;SDS011;1813;52.016;8.714;2022-12-20T14:34:50;8.53;;;5.30;;
3597;SDS011;1813;52.016;8.714;2022-12-20T14:37:26;11.60;;;7.53;;
3597;SDS011;1813;52.016;8.714;2022-12-20T14:40:03;10.17;;;6.30;;
3597;SDS011;1813;52.016;8.714;2022-12-20T14:42:54;8.83;;;5.23;;
3597;SDS011;1813;52.016;8.714;2022-12-20T14:45:28;5.63;;;4.27;;
3597;SDS011;1813;52.016;8.714;2022-12-20T14:48:05;7.60;;;4.30;;
3597;SDS011;1813;52.016;8.714;2022-12-20T14:50:50;7.40;;;3.83;;
3597;SDS011;1813;52.016;8.714;2022-12-20T14:53:25;6.70;;;3.60;;
3597;SDS011;1813;52.016;8.714;2022-12-20T14:56:00;4.60;;;3.67;;
3597;SDS011;1813;52.016;8.714;2022-12-20T14:58:33;6.80;;;3.70;;
3597;SDS011;1813;52.016;8.714;2022-12-20T15:01:16;3.97;;;3.30;;
3597;SDS011;1813;52.016;8.714;2022-12-20T15:03:54;6.83;;;3.70;;
3597;SDS011;1813;52.016;8.714;2022-12-20T15:06:33;7.30;;;3.47;;
3597;SDS011;1813;52.016;8.714;2022-12-20T15:09:09;6.00;;;3.57;;
3597;SDS011;1813;52.016;8.714;2022-12-20T15:11:44;9.37;;;3.50;;
3597;SDS011;1813;52.016;8.714;2022-12-20T15:14:20;6.47;;;4.20;;
3597;SDS011;1813;52.016;8.714;2022-12-20T15:17:00;7.83;;;3.87;;
3597;SDS011;1813;52.016;8.714;2022-12-20T15:19:38;4.93;;;3.77;;
3597;SDS011;1813;52.016;8.714;2022-12-20T15:22:13;7.70;;;3.67;;
3597;SDS011;1813;52.016;8.714;2022-12-20T15:24:49;5.03;;;3.77;;
3597;SDS011;1813;52.016;8.714;2022-12-20T15:27:23;8.43;;;4.00;;
3597;SDS011;1813;52.016;8.714;2022-12-20T15:29:57;4.27;;;3.67;;
3597;SDS011;1813;52.016;8.714;2022-12-20T15:32:31;7.37;;;4.60;;
3597;SDS011;1813;52.016;8.714;2022-12-20T15:35:10;7.63;;;4.63;;
3597;SDS011;1813;52.016;8.714;2022-12-20T15:37:45;6.50;;;4.80;;
3597;SDS011;1813;52.016;8.714;2022-12-20T15:40:19;11.73;;;4.93;;
3597;SDS011;1813;52.016;8.714;2022-12-20T15:42:52;9.80;;;5.83;;
3597;SDS011;1813;52.016;8.714;2022-12-20T15:45:26;10.17;;;5.73;;
3597;SDS011;1813;52.016;8.714;2022-12-20T15:48:00;10.80;;;5.90;;
3597;SDS011;1813;52.016;8.714;2022-12-20T15:50:37;10.40;;;7.10;;
3597;SDS011;1813;52.016;8.714;2022-12-20T15:53:12;9.53;;;6.47;;
3597;SDS011;1813;52.016;8.714;2022-12-20T15:55:47;8.47;;;6.83;;
3597;SDS011;1813;52.016;8.714;2022-12-20T15:58:22;11.03;;;7.70;;
3597;SDS011;1813;52.016;8.714;2022-12-20T16:00:59;9.93;;;7.90;;
3597;SDS011;1813;52.016;8.714;2022-12-20T16:03:33;11.10;;;7.73;;
3597;SDS011;1813;52.016;8.714;2022-12-20T16:06:10;11.03;;;7.73;;
3597;SDS011;1813;52.016;8.714;2022-12-20T16:08:44;14.50;;;7.70;;
3597;SDS011;1813;52.016;8.714;2022-12-20T16:11:19;13.53;;;7.90;;
3597;SDS011;1813;52.016;8.714;2022-12-20T16:13:53;16.23;;;8.27;;
3597;SDS011;1813;52.016;8.714;2022-12-20T16:16:29;12.80;;;7.60;;
3597;SDS011;1813;52.016;8.714;2022-12-20T16:19:04;12.07;;;7.60;;
3597;SDS011;1813;52.016;8.714;2022-12-20T16:21:42;13.17;;;7.87;;
3597;SDS011;1813;52.016;8.714;2022-12-20T16:24:19;11.20;;;7.63;;
3597;SDS011;1813;52.016;8.714;2022-12-20T16:26:52;17.40;;;7.53;;
3597;SDS011;1813;52.016;8.714;2022-12-20T16:29:26;13.10;;;8.30;;
3597;SDS011;1813;52.016;8.714;2022-12-20T16:32:00;13.37;;;7.73;;
3597;SDS011;1813;52.016;8.714;2022-12-20T16:34:37;12.83;;;8.00;;
3597;SDS011;1813;52.016;8.714;2022-12-20T16:37:14;14.20;;;7.70;;
3597;SDS011;1813;52.016;8.714;2022-12-20T16:39:48;9.43;;;6.83;;